sensor_id;sensor_type;location;lat;lon;timestamp;temperature;humidity
60309;DHT22;50313;52.894;6.492;2023-04-07T00:02:33;7.00;99.90
60309;DHT22;50313;52.894;6.492;2023-04-07T00:04:59;7.00;99.90
60309;DHT22;50313;52.894;6.492;2023-04-07T00:07:34;7.00;99.90
60309;DHT22;50313;52.894;6.492;2023-04-07T00:10:10;7.00;99.90
60309;DHT22;50313;52.894;6.492;2023-04-07T00:12:39;7.00;99.90
60309;DHT22;50313;52.894;6.492;2023-04-07T00:15:12;7.00;99.90
60309;DHT22;50313;52.894;6.492;2023-04-07T00:17:52;7.00;99.90
60309;DHT22;50313;52.894;6.492;2023-04-07T00:20:41;7.00;99.90
60309;DHT22;50313;52.894;6.492;2023-04-07T00:23:09;7.10;99.90
60309;DHT22;50313;52.894;6.492;2023-04-07T00:25:39;7.00;99.90
60309;DHT22;50313;52.894;6.492;2023-04-07T00:28:12;7.00;99.90
60309;DHT22;50313;52.894;6.492;2023-04-07T00:30:55;7.00;99.90
60309;DHT22;50313;52.894;6.492;2023-04-07T00:33:44;7.00;99.90
60309;DHT22;50313;52.894;6.492;2023-04-07T00:36:20;7.00;99.90
60309;DHT22;50313;52.894;6.492;2023-04-07T00:38:48;7.00;99.90
60309;DHT22;50313;52.894;6.492;2023-04-07T00:41:14;7.00;99.90
60309;DHT22;50313;52.894;6.492;2023-04-07T00:43:42;7.00;99.90
60309;DHT22;50313;52.894;6.492;2023-04-07T00:46:08;7.00;99.90
60309;DHT22;50313;52.894;6.492;2023-04-07T00:48:44;7.00;99.90
60309;DHT22;50313;52.894;6.492;2023-04-07T00:51:23;7.00;99.90
60309;DHT22;50313;52.894;6.492;2023-04-07T00:53:57;7.00;99.90
60309;DHT22;50313;52.894;6.492;2023-04-07T00:56:26;7.00;99.90
60309;DHT22;50313;52.894;6.492;2023-04-07T00:59:09;7.00;99.90
60309;DHT22;50313;52.894;6.492;2023-04-07T01:02:14;6.90;99.90
60309;DHT22;50313;52.894;6.492;2023-04-07T01:07:59;7.00;99.90
60309;DHT22;50313;52.894;6.492;2023-04-07T01:13:47;7.00;99.90
60309;DHT22;50313;52.894;6.492;2023-04-07T01:16:37;7.00;99.90
60309;DHT22;50313;52.894;6.492;2023-04-07T01:19:36;7.10;99.90
60309;DHT22;50313;52.894;6.492;2023-04-07T01:22:28;7.10;99.90
60309;DHT22;50313;52.894;6.492;2023-04-07T01:31:20;7.00;99.90
60309;DHT22;50313;52.894;6.492;2023-04-07T01:33:52;7.10;99.90
60309;DHT22;50313;52.894;6.492;2023-04-07T01:36:23;7.10;99.90
60309;DHT22;50313;52.894;6.492;2023-04-07T01:38:52;7.10;99.90
60309;DHT22;50313;52.894;6.492;2023-04-07T01:41:33;7.00;99.90
60309;DHT22;50313;52.894;6.492;2023-04-07T01:44:24;7.00;99.90
60309;DHT22;50313;52.894;6.492;2023-04-07T01:46:50;7.10;99.90
60309;DHT22;50313;52.894;6.492;2023-04-07T01:49:24;7.00;99.90
60309;DHT22;50313;52.894;6.492;2023-04-07T01:51:59;7.10;99.90
60309;DHT22;50313;52.894;6.492;2023-04-07T01:54:28;7.00;99.90
60309;DHT22;50313;52.894;6.492;2023-04-07T01:57:07;7.10;99.90
60309;DHT22;50313;52.894;6.492;2023-04-07T01:59:38;7.10;99.90
60309;DHT22;50313;52.894;6.492;2023-04-07T02:02:15;7.10;99.90
60309;DHT22;50313;52.894;6.492;2023-04-07T02:04:56;7.00;99.90
60309;DHT22;50313;52.894;6.492;2023-04-07T02:08:11;7.00;99.90
60309;DHT22;50313;52.894;6.492;2023-04-07T02:10:38;7.10;99.90
60309;DHT22;50313;52.894;6.492;2023-04-07T02:13:19;7.10;99.90
60309;DHT22;50313;52.894;6.492;2023-04-07T02:15:46;7.10;99.90
60309;DHT22;50313;52.894;6.492;2023-04-07T02:18:17;7.00;99.90
60309;DHT22;50313;52.894;6.492;2023-04-07T02:20:55;7.10;99.90
60309;DHT22;50313;52.894;6.492;2023-04-07T02:23:22;7.10;99.90
60309;DHT22;50313;52.894;6.492;2023-04-07T02:25:55;7.00;99.90
60309;DHT22;50313;52.894;6.492;2023-04-07T02:28:26;7.00;99.90
60309;DHT22;50313;52.894;6.492;2023-04-07T02:30:52;7.10;99.90
60309;DHT22;50313;52.894;6.492;2023-04-07T02:33:23;7.00;99.90
60309;DHT22;50313;52.894;6.492;2023-04-07T02:39:08;7.00;99.90
60309;DHT22;50313;52.894;6.492;2023-04-07T02:41:46;7.10;99.90
60309;DHT22;50313;52.894;6.492;2023-04-07T02:44:14;7.00;99.90
60309;DHT22;50313;52.894;6.492;2023-04-07T02:46:45;7.00;99.90
60309;DHT22;50313;52.894;6.492;2023-04-07T02:49:21;7.00;99.90
60309;DHT22;50313;52.894;6.492;2023-04-07T02:51:49;7.10;99.90
60309;DHT22;50313;52.894;6.492;2023-04-07T02:54:17;7.10;99.90
60309;DHT22;50313;52.894;6.492;2023-04-07T02:56:43;7.10;99.90
60309;DHT22;50313;52.894;6.492;2023-04-07T02:59:14;7.10;99.90
60309;DHT22;50313;52.894;6.492;2023-04-07T03:01:42;7.10;99.90
60309;DHT22;50313;52.894;6.492;2023-04-07T03:04:08;7.00;99.90
60309;DHT22;50313;52.894;6.492;2023-04-07T03:06:38;7.00;99.90
60309;DHT22;50313;52.894;6.492;2023-04-07T03:09:04;7.00;99.90
60309;DHT22;50313;52.894;6.492;2023-04-07T03:11:35;7.00;99.90
60309;DHT22;50313;52.894;6.492;2023-04-07T03:14:00;7.00;99.90
60309;DHT22;50313;52.894;6.492;2023-04-07T03:16:29;7.00;99.90
60309;DHT22;50313;52.894;6.492;2023-04-07T03:19:01;7.10;99.90
60309;DHT22;50313;52.894;6.492;2023-04-07T03:21:47;7.00;99.90
60309;DHT22;50313;52.894;6.492;2023-04-07T03:24:18;7.10;99.90
60309;DHT22;50313;52.894;6.492;2023-04-07T03:26:59;7.00;99.90
60309;DHT22;50313;52.894;6.492;2023-04-07T03:29:31;7.00;99.90
60309;DHT22;50313;52.894;6.492;2023-04-07T03:32:00;7.00;99.90
60309;DHT22;50313;52.894;6.492;2023-04-07T03:34:28;7.00;99.90
60309;DHT22;50313;52.894;6.492;2023-04-07T03:36:54;7.00;99.90
60309;DHT22;50313;52.894;6.492;2023-04-07T03:39:22;7.10;99.90
60309;DHT22;50313;52.894;6.492;2023-04-07T03:41:50;7.10;99.90
60309;DHT22;50313;52.894;6.492;2023-04-07T03:44:19;7.00;99.90
60309;DHT22;50313;52.894;6.492;2023-04-07T03:46:51;7.10;99.90
60309;DHT22;50313;52.894;6.492;2023-04-07T03:49:33;7.00;99.90
60309;DHT22;50313;52.894;6.492;2023-04-07T03:52:01;7.00;99.90
60309;DHT22;50313;52.894;6.492;2023-04-07T03:54:34;7.10;99.90
60309;DHT22;50313;52.894;6.492;2023-04-07T03:57:03;7.10;99.90
60309;DHT22;50313;52.894;6.492;2023-04-07T03:59:39;7.10;99.90
60309;DHT22;50313;52.894;6.492;2023-04-07T04:02:30;7.10;99.90
60309;DHT22;50313;52.894;6.492;2023-04-07T04:05:30;7.10;99.90
60309;DHT22;50313;52.894;6.492;2023-04-07T04:07:58;7.00;99.90
60309;DHT22;50313;52.894;6.492;2023-04-07T04:10:26;7.10;99.90
60309;DHT22;50313;52.894;6.492;2023-04-07T04:12:58;7.00;99.90
60309;DHT22;50313;52.894;6.492;2023-04-07T04:15:33;7.00;99.90
60309;DHT22;50313;52.894;6.492;2023-04-07T04:18:01;7.10;99.90
60309;DHT22;50313;52.894;6.492;2023-04-07T04:20:30;7.10;99.90
60309;DHT22;50313;52.894;6.492;2023-04-07T04:22:56;7.10;99.90
60309;DHT22;50313;52.894;6.492;2023-04-07T04:25:22;7.00;99.90
60309;DHT22;50313;52.894;6.492;2023-04-07T04:27:53;7.00;99.90
60309;DHT22;50313;52.894;6.492;2023-04-07T04:30:25;7.00;99.90
60309;DHT22;50313;52.894;6.492;2023-04-07T04:32:53;7.00;99.90
60309;DHT22;50313;52.894;6.492;2023-04-07T04:35:25;7.00;99.90
60309;DHT22;50313;52.894;6.492;2023-04-07T04:37:57;7.20;99.90
60309;DHT22;50313;52.894;6.492;2023-04-07T04:40:28;7.00;99.90
60309;DHT22;50313;52.894;6.492;2023-04-07T04:42:54;7.10;99.90
60309;DHT22;50313;52.894;6.492;2023-04-07T04:45:23;6.90;99.90
60309;DHT22;50313;52.894;6.492;2023-04-07T04:47:49;7.00;99.90
60309;DHT22;50313;52.894;6.492;2023-04-07T04:50:15;7.00;99.90
60309;DHT22;50313;52.894;6.492;2023-04-07T04:52:44;7.00;99.90
60309;DHT22;50313;52.894;6.492;2023-04-07T04:55:10;7.00;99.90
60309;DHT22;50313;52.894;6.492;2023-04-07T04:57:41;7.00;99.90
60309;DHT22;50313;52.894;6.492;2023-04-07T05:00:08;7.00;99.90
60309;DHT22;50313;52.894;6.492;2023-04-07T05:02:47;7.00;99.90
60309;DHT22;50313;52.894;6.492;2023-04-07T05:05:13;7.00;99.90
60309;DHT22;50313;52.894;6.492;2023-04-07T05:07:39;7.00;99.90
60309;DHT22;50313;52.894;6.492;2023-04-07T05:10:08;7.00;99.90
60309;DHT22;50313;52.894;6.492;2023-04-07T05:12:49;7.00;99.90
60309;DHT22;50313;52.894;6.492;2023-04-07T05:15:18;7.00;99.90
60309;DHT22;50313;52.894;6.492;2023-04-07T05:17:44;7.00;99.90
60309;DHT22;50313;52.894;6.492;2023-04-07T05:20:32;6.90;99.90
60309;DHT22;50313;52.894;6.492;2023-04-07T05:23:01;7.00;99.90
60309;DHT22;50313;52.894;6.492;2023-04-07T05:25:29;7.00;99.90
60309;DHT22;50313;52.894;6.492;2023-04-07T05:27:56;7.00;99.90
60309;DHT22;50313;52.894;6.492;2023-04-07T05:30:29;7.00;99.90
60309;DHT22;50313;52.894;6.492;2023-04-07T05:32:57;6.90;99.90
60309;DHT22;50313;52.894;6.492;2023-04-07T05:35:25;7.00;99.90
60309;DHT22;50313;52.894;6.492;2023-04-07T05:37:54;7.00;99.90
60309;DHT22;50313;52.894;6.492;2023-04-07T05:40:41;7.00;99.90
60309;DHT22;50313;52.894;6.492;2023-04-07T05:43:06;7.00;99.90
60309;DHT22;50313;52.894;6.492;2023-04-07T05:45:35;7.00;99.90
60309;DHT22;50313;52.894;6.492;2023-04-07T05:48:03;6.90;99.90
60309;DHT22;50313;52.894;6.492;2023-04-07T05:50:29;7.00;99.90
60309;DHT22;50313;52.894;6.492;2023-04-07T05:52:57;7.00;99.90
60309;DHT22;50313;52.894;6.492;2023-04-07T05:55:35;7.00;99.90
60309;DHT22;50313;52.894;6.492;2023-04-07T05:58:01;7.00;99.90
60309;DHT22;50313;52.894;6.492;2023-04-07T06:00:27;7.00;99.90
60309;DHT22;50313;52.894;6.492;2023-04-07T06:02:56;7.00;99.90
60309;DHT22;50313;52.894;6.492;2023-04-07T06:05:24;6.90;99.90
60309;DHT22;50313;52.894;6.492;2023-04-07T06:07:59;7.10;99.90
60309;DHT22;50313;52.894;6.492;2023-04-07T06:10:34;7.10;99.90
60309;DHT22;50313;52.894;6.492;2023-04-07T06:13:24;7.00;99.90
60309;DHT22;50313;52.894;6.492;2023-04-07T06:15:53;7.00;99.90
60309;DHT22;50313;52.894;6.492;2023-04-07T06:18:21;7.00;99.90
60309;DHT22;50313;52.894;6.492;2023-04-07T06:20:53;7.00;99.90
60309;DHT22;50313;52.894;6.492;2023-04-07T06:23:18;7.00;99.90
60309;DHT22;50313;52.894;6.492;2023-04-07T06:25:49;7.00;99.90
60309;DHT22;50313;52.894;6.492;2023-04-07T06:28:27;7.00;99.90
60309;DHT22;50313;52.894;6.492;2023-04-07T06:30:57;7.00;99.90
60309;DHT22;50313;52.894;6.492;2023-04-07T06:33:33;7.00;99.90
60309;DHT22;50313;52.894;6.492;2023-04-07T06:36:13;7.10;99.90
60309;DHT22;50313;52.894;6.492;2023-04-07T06:38:39;7.10;99.90
60309;DHT22;50313;52.894;6.492;2023-04-07T06:41:05;7.20;99.90
60309;DHT22;50313;52.894;6.492;2023-04-07T06:46:16;7.20;99.90
60309;DHT22;50313;52.894;6.492;2023-04-07T06:48:52;7.30;99.90
60309;DHT22;50313;52.894;6.492;2023-04-07T06:51:18;7.20;99.90
60309;DHT22;50313;52.894;6.492;2023-04-07T06:53:55;7.30;99.90
60309;DHT22;50313;52.894;6.492;2023-04-07T06:56:34;7.30;99.90
60309;DHT22;50313;52.894;6.492;2023-04-07T06:59:09;7.40;99.90
60309;DHT22;50313;52.894;6.492;2023-04-07T07:01:40;7.40;99.90
60309;DHT22;50313;52.894;6.492;2023-04-07T07:04:11;7.40;99.90
60309;DHT22;50313;52.894;6.492;2023-04-07T07:06:42;7.50;99.90
60309;DHT22;50313;52.894;6.492;2023-04-07T07:11:57;7.60;99.90
60309;DHT22;50313;52.894;6.492;2023-04-07T07:15:03;7.50;99.90
60309;DHT22;50313;52.894;6.492;2023-04-07T07:18:07;7.50;99.90
60309;DHT22;50313;52.894;6.492;2023-04-07T07:20:43;7.60;99.90
60309;DHT22;50313;52.894;6.492;2023-04-07T07:23:14;7.60;99.90
60309;DHT22;50313;52.894;6.492;2023-04-07T07:25:40;7.70;99.90
60309;DHT22;50313;52.894;6.492;2023-04-07T07:28:06;7.60;99.90
60309;DHT22;50313;52.894;6.492;2023-04-07T07:30:41;7.60;99.90
60309;DHT22;50313;52.894;6.492;2023-04-07T07:33:07;7.70;99.90
60309;DHT22;50313;52.894;6.492;2023-04-07T07:35:35;7.70;99.90
60309;DHT22;50313;52.894;6.492;2023-04-07T07:38:12;7.80;99.90
60309;DHT22;50313;52.894;6.492;2023-04-07T07:40:41;7.90;99.90
60309;DHT22;50313;52.894;6.492;2023-04-07T07:43:14;8.00;99.90
60309;DHT22;50313;52.894;6.492;2023-04-07T07:45:53;7.90;99.90
60309;DHT22;50313;52.894;6.492;2023-04-07T07:48:26;8.00;99.90
60309;DHT22;50313;52.894;6.492;2023-04-07T07:51:01;8.00;99.90
60309;DHT22;50313;52.894;6.492;2023-04-07T07:54:07;8.10;99.90
60309;DHT22;50313;52.894;6.492;2023-04-07T07:56:37;8.20;99.90
60309;DHT22;50313;52.894;6.492;2023-04-07T07:59:23;8.30;99.90
60309;DHT22;50313;52.894;6.492;2023-04-07T08:02:01;8.30;99.90
60309;DHT22;50313;52.894;6.492;2023-04-07T08:04:38;8.40;99.90
60309;DHT22;50313;52.894;6.492;2023-04-07T08:07:09;8.30;99.90
60309;DHT22;50313;52.894;6.492;2023-04-07T08:09:38;8.40;99.90
60309;DHT22;50313;52.894;6.492;2023-04-07T08:12:07;8.40;99.90
60309;DHT22;50313;52.894;6.492;2023-04-07T08:14:42;8.50;99.90
60309;DHT22;50313;52.894;6.492;2023-04-07T08:17:22;8.50;99.90
60309;DHT22;50313;52.894;6.492;2023-04-07T08:20:07;8.60;99.90
60309;DHT22;50313;52.894;6.492;2023-04-07T08:23:01;8.60;99.90
60309;DHT22;50313;52.894;6.492;2023-04-07T08:25:39;8.70;99.90
60309;DHT22;50313;52.894;6.492;2023-04-07T08:31:29;8.70;99.90
60309;DHT22;50313;52.894;6.492;2023-04-07T08:34:12;8.70;99.90
60309;DHT22;50313;52.894;6.492;2023-04-07T08:36:40;8.80;99.90
60309;DHT22;50313;52.894;6.492;2023-04-07T08:39:19;8.80;99.90
60309;DHT22;50313;52.894;6.492;2023-04-07T08:42:03;9.00;99.90
60309;DHT22;50313;52.894;6.492;2023-04-07T08:44:40;9.00;99.90
60309;DHT22;50313;52.894;6.492;2023-04-07T08:50:25;9.10;99.90
60309;DHT22;50313;52.894;6.492;2023-04-07T08:53:00;9.30;99.90
60309;DHT22;50313;52.894;6.492;2023-04-07T08:55:34;9.20;99.90
60309;DHT22;50313;52.894;6.492;2023-04-07T08:58:16;9.20;99.90
60309;DHT22;50313;52.894;6.492;2023-04-07T09:01:12;9.20;99.90
60309;DHT22;50313;52.894;6.492;2023-04-07T09:03:42;9.30;99.90
60309;DHT22;50313;52.894;6.492;2023-04-07T09:06:49;9.20;99.90
60309;DHT22;50313;52.894;6.492;2023-04-07T09:12:09;9.30;99.90
60309;DHT22;50313;52.894;6.492;2023-04-07T09:15:06;9.40;99.90
60309;DHT22;50313;52.894;6.492;2023-04-07T09:17:40;9.50;99.90
60309;DHT22;50313;52.894;6.492;2023-04-07T09:20:12;9.40;99.90
60309;DHT22;50313;52.894;6.492;2023-04-07T09:22:56;9.50;99.90
60309;DHT22;50313;52.894;6.492;2023-04-07T09:25:41;9.50;99.90
60309;DHT22;50313;52.894;6.492;2023-04-07T09:28:25;9.60;99.90
60309;DHT22;50313;52.894;6.492;2023-04-07T09:31:14;9.70;99.90
60309;DHT22;50313;52.894;6.492;2023-04-07T09:33:51;9.60;99.90
60309;DHT22;50313;52.894;6.492;2023-04-07T09:36:52;9.70;99.90
60309;DHT22;50313;52.894;6.492;2023-04-07T09:39:50;9.60;99.90
60309;DHT22;50313;52.894;6.492;2023-04-07T09:42:30;9.70;99.90
60309;DHT22;50313;52.894;6.492;2023-04-07T09:45:04;9.60;99.90
60309;DHT22;50313;52.894;6.492;2023-04-07T09:47:31;9.60;99.90
60309;DHT22;50313;52.894;6.492;2023-04-07T09:50:15;9.50;99.90
60309;DHT22;50313;52.894;6.492;2023-04-07T09:52:51;9.60;99.90
60309;DHT22;50313;52.894;6.492;2023-04-07T09:58:39;9.50;99.90
60309;DHT22;50313;52.894;6.492;2023-04-07T10:01:08;9.50;99.90
60309;DHT22;50313;52.894;6.492;2023-04-07T10:06:56;9.50;99.90
60309;DHT22;50313;52.894;6.492;2023-04-07T10:09:56;9.60;99.90
60309;DHT22;50313;52.894;6.492;2023-04-07T10:12:32;9.50;99.90
60309;DHT22;50313;52.894;6.492;2023-04-07T10:15:42;9.50;99.90
60309;DHT22;50313;52.894;6.492;2023-04-07T10:18:32;9.40;99.90
60309;DHT22;50313;52.894;6.492;2023-04-07T10:21:06;9.30;99.90
60309;DHT22;50313;52.894;6.492;2023-04-07T10:24:11;9.40;99.90
60309;DHT22;50313;52.894;6.492;2023-04-07T10:27:01;9.50;99.90
60309;DHT22;50313;52.894;6.492;2023-04-07T10:29:49;9.50;99.90
60309;DHT22;50313;52.894;6.492;2023-04-07T10:32:26;9.60;99.90
60309;DHT22;50313;52.894;6.492;2023-04-07T10:35:05;9.50;99.90
60309;DHT22;50313;52.894;6.492;2023-04-07T10:38:08;9.30;99.90
60309;DHT22;50313;52.894;6.492;2023-04-07T10:40:41;9.40;99.90
60309;DHT22;50313;52.894;6.492;2023-04-07T10:43:15;9.50;99.90
60309;DHT22;50313;52.894;6.492;2023-04-07T10:46:10;9.50;99.90
60309;DHT22;50313;52.894;6.492;2023-04-07T10:54:46;9.50;99.90
60309;DHT22;50313;52.894;6.492;2023-04-07T10:57:18;9.50;99.90
60309;DHT22;50313;52.894;6.492;2023-04-07T11:02:57;9.80;99.90
60309;DHT22;50313;52.894;6.492;2023-04-07T11:06:06;9.90;99.90
60309;DHT22;50313;52.894;6.492;2023-04-07T11:09:02;10.10;99.90
60309;DHT22;50313;52.894;6.492;2023-04-07T11:11:42;10.40;99.90
60309;DHT22;50313;52.894;6.492;2023-04-07T11:21:48;10.50;99.90
60309;DHT22;50313;52.894;6.492;2023-04-07T11:25:04;10.40;99.90
60309;DHT22;50313;52.894;6.492;2023-04-07T11:31:39;10.10;99.90
60309;DHT22;50313;52.894;6.492;2023-04-07T11:34:08;9.80;99.90
60309;DHT22;50313;52.894;6.492;2023-04-07T11:36:42;9.80;99.90
60309;DHT22;50313;52.894;6.492;2023-04-07T11:39:46;9.80;99.90
60309;DHT22;50313;52.894;6.492;2023-04-07T11:42:55;9.70;99.90
60309;DHT22;50313;52.894;6.492;2023-04-07T11:46:01;9.70;99.90
60309;DHT22;50313;52.894;6.492;2023-04-07T11:49:06;9.70;99.90
60309;DHT22;50313;52.894;6.492;2023-04-07T11:54:42;9.70;99.90
60309;DHT22;50313;52.894;6.492;2023-04-07T11:57:30;9.70;99.90
60309;DHT22;50313;52.894;6.492;2023-04-07T12:00:30;9.70;99.90
60309;DHT22;50313;52.894;6.492;2023-04-07T12:03:13;9.80;99.90
60309;DHT22;50313;52.894;6.492;2023-04-07T12:06:54;9.70;99.90
60309;DHT22;50313;52.894;6.492;2023-04-07T12:25:13;9.60;99.90
60309;DHT22;50313;52.894;6.492;2023-04-07T12:37:51;9.70;99.90
60309;DHT22;50313;52.894;6.492;2023-04-07T12:43:30;9.90;99.90
60309;DHT22;50313;52.894;6.492;2023-04-07T12:46:01;10.00;99.90
60309;DHT22;50313;52.894;6.492;2023-04-07T12:48:54;10.10;99.90
60309;DHT22;50313;52.894;6.492;2023-04-07T12:51:47;10.40;99.90
60309;DHT22;50313;52.894;6.492;2023-04-07T12:54:41;10.40;99.90
60309;DHT22;50313;52.894;6.492;2023-04-07T12:57:18;10.50;99.90
60309;DHT22;50313;52.894;6.492;2023-04-07T13:00:07;10.70;99.90
60309;DHT22;50313;52.894;6.492;2023-04-07T13:02:38;10.90;99.90
60309;DHT22;50313;52.894;6.492;2023-04-07T13:05:14;10.90;99.90
60309;DHT22;50313;52.894;6.492;2023-04-07T13:07:53;11.20;99.90
60309;DHT22;50313;52.894;6.492;2023-04-07T13:10:47;11.20;99.90
60309;DHT22;50313;52.894;6.492;2023-04-07T13:13:26;11.20;99.90
60309;DHT22;50313;52.894;6.492;2023-04-07T13:16:02;11.30;99.90
60309;DHT22;50313;52.894;6.492;2023-04-07T13:18:44;11.40;99.90
60309;DHT22;50313;52.894;6.492;2023-04-07T13:21:26;11.50;99.90
60309;DHT22;50313;52.894;6.492;2023-04-07T13:24:38;11.50;99.90
60309;DHT22;50313;52.894;6.492;2023-04-07T13:27:12;11.70;99.90
60309;DHT22;50313;52.894;6.492;2023-04-07T13:29:57;11.70;99.90
60309;DHT22;50313;52.894;6.492;2023-04-07T13:32:44;11.80;99.90
60309;DHT22;50313;52.894;6.492;2023-04-07T13:35:36;11.70;99.90
60309;DHT22;50313;52.894;6.492;2023-04-07T13:41:59;12.20;99.90
60309;DHT22;50313;52.894;6.492;2023-04-07T13:44:42;12.20;99.90
60309;DHT22;50313;52.894;6.492;2023-04-07T13:47:19;12.30;99.90
60309;DHT22;50313;52.894;6.492;2023-04-07T13:49:55;12.20;99.90
60309;DHT22;50313;52.894;6.492;2023-04-07T13:52:21;12.20;99.90
60309;DHT22;50313;52.894;6.492;2023-04-07T13:55:16;12.10;99.90
60309;DHT22;50313;52.894;6.492;2023-04-07T13:57:47;12.20;99.90
60309;DHT22;50313;52.894;6.492;2023-04-07T14:00:18;12.30;99.90
60309;DHT22;50313;52.894;6.492;2023-04-07T14:02:50;12.20;99.90
60309;DHT22;50313;52.894;6.492;2023-04-07T14:08:56;12.30;99.90
60309;DHT22;50313;52.894;6.492;2023-04-07T14:19:05;12.30;99.90
60309;DHT22;50313;52.894;6.492;2023-04-07T14:21:58;12.40;99.90
60309;DHT22;50313;52.894;6.492;2023-04-07T14:24:40;12.30;99.90
60309;DHT22;50313;52.894;6.492;2023-04-07T14:27:27;12.40;99.90
60309;DHT22;50313;52.894;6.492;2023-04-07T14:30:18;12.50;99.90
60309;DHT22;50313;52.894;6.492;2023-04-07T14:33:16;12.50;99.90
60309;DHT22;50313;52.894;6.492;2023-04-07T14:50:04;12.80;99.90
60309;DHT22;50313;52.894;6.492;2023-04-07T14:53:18;12.80;99.90
60309;DHT22;50313;52.894;6.492;2023-04-07T14:59:27;12.70;99.90
60309;DHT22;50313;52.894;6.492;2023-04-07T15:02:16;12.80;99.90
60309;DHT22;50313;52.894;6.492;2023-04-07T15:05:15;12.70;99.90
60309;DHT22;50313;52.894;6.492;2023-04-07T15:07:58;12.70;99.90
60309;DHT22;50313;52.894;6.492;2023-04-07T15:10:48;12.70;99.90
60309;DHT22;50313;52.894;6.492;2023-04-07T15:13:47;12.60;99.90
60309;DHT22;50313;52.894;6.492;2023-04-07T15:16:56;12.70;99.90
60309;DHT22;50313;52.894;6.492;2023-04-07T15:19:56;12.90;99.90
60309;DHT22;50313;52.894;6.492;2023-04-07T15:25:39;13.00;99.90
60309;DHT22;50313;52.894;6.492;2023-04-07T15:28:25;13.10;99.90
60309;DHT22;50313;52.894;6.492;2023-04-07T15:31:19;13.00;99.90
60309;DHT22;50313;52.894;6.492;2023-04-07T15:34:05;13.00;99.90
60309;DHT22;50313;52.894;6.492;2023-04-07T15:37:03;13.00;99.90
60309;DHT22;50313;52.894;6.492;2023-04-07T15:42:28;12.80;99.90
60309;DHT22;50313;52.894;6.492;2023-04-07T15:45:07;12.80;99.90
60309;DHT22;50313;52.894;6.492;2023-04-07T15:47:56;12.70;99.90
60309;DHT22;50313;52.894;6.492;2023-04-07T15:50:34;12.80;99.90
60309;DHT22;50313;52.894;6.492;2023-04-07T15:56:12;12.60;99.90
60309;DHT22;50313;52.894;6.492;2023-04-07T15:58:51;12.50;99.90
60309;DHT22;50313;52.894;6.492;2023-04-07T16:01:30;12.40;99.90
60309;DHT22;50313;52.894;6.492;2023-04-07T16:04:23;12.20;99.90
60309;DHT22;50313;52.894;6.492;2023-04-07T16:07:12;12.30;99.90
60309;DHT22;50313;52.894;6.492;2023-04-07T16:16:55;11.90;99.90
60309;DHT22;50313;52.894;6.492;2023-04-07T16:19:58;11.90;99.90
60309;DHT22;50313;52.894;6.492;2023-04-07T16:23:23;11.90;99.90
60309;DHT22;50313;52.894;6.492;2023-04-07T16:26:30;12.00;99.90
60309;DHT22;50313;52.894;6.492;2023-04-07T16:32:21;12.60;99.90
60309;DHT22;50313;52.894;6.492;2023-04-07T16:35:00;12.50;99.90
60309;DHT22;50313;52.894;6.492;2023-04-07T16:47:32;12.10;99.90
60309;DHT22;50313;52.894;6.492;2023-04-07T16:50:31;12.10;99.90
60309;DHT22;50313;52.894;6.492;2023-04-07T16:53:46;12.00;99.90
60309;DHT22;50313;52.894;6.492;2023-04-07T17:03:31;11.70;99.90
60309;DHT22;50313;52.894;6.492;2023-04-07T17:06:23;11.60;99.90
60309;DHT22;50313;52.894;6.492;2023-04-07T17:09:28;11.50;99.90
60309;DHT22;50313;52.894;6.492;2023-04-07T17:12:10;11.40;99.90
60309;DHT22;50313;52.894;6.492;2023-04-07T17:14:41;11.30;99.90
60309;DHT22;50313;52.894;6.492;2023-04-07T17:17:27;11.20;99.90
60309;DHT22;50313;52.894;6.492;2023-04-07T17:20:06;11.20;99.90
60309;DHT22;50313;52.894;6.492;2023-04-07T17:22:35;11.00;99.90
60309;DHT22;50313;52.894;6.492;2023-04-07T17:25:28;10.90;99.90
60309;DHT22;50313;52.894;6.492;2023-04-07T17:28:04;10.80;99.90
60309;DHT22;50313;52.894;6.492;2023-04-07T17:30:42;10.70;99.90
60309;DHT22;50313;52.894;6.492;2023-04-07T17:33:27;10.50;99.90
60309;DHT22;50313;52.894;6.492;2023-04-07T17:36:21;10.50;99.90
60309;DHT22;50313;52.894;6.492;2023-04-07T17:44:58;10.10;99.90
60309;DHT22;50313;52.894;6.492;2023-04-07T17:47:28;10.10;99.90
60309;DHT22;50313;52.894;6.492;2023-04-07T17:50:22;10.00;99.90
60309;DHT22;50313;52.894;6.492;2023-04-07T17:52:58;9.70;99.90
60309;DHT22;50313;52.894;6.492;2023-04-07T17:55:42;9.70;99.90
60309;DHT22;50313;52.894;6.492;2023-04-07T17:58:23;9.60;99.90
60309;DHT22;50313;52.894;6.492;2023-04-07T18:03:30;9.40;99.90
60309;DHT22;50313;52.894;6.492;2023-04-07T18:05:56;9.30;99.90
60309;DHT22;50313;52.894;6.492;2023-04-07T18:08:24;9.20;99.90
60309;DHT22;50313;52.894;6.492;2023-04-07T18:10:52;9.10;99.90
60309;DHT22;50313;52.894;6.492;2023-04-07T18:13:18;9.00;99.90
60309;DHT22;50313;52.894;6.492;2023-04-07T18:15:46;8.80;99.90
60309;DHT22;50313;52.894;6.492;2023-04-07T18:18:18;8.70;99.90
60309;DHT22;50313;52.894;6.492;2023-04-07T18:20:46;8.70;99.90
60309;DHT22;50313;52.894;6.492;2023-04-07T18:23:43;8.60;99.90
60309;DHT22;50313;52.894;6.492;2023-04-07T18:26:09;8.50;99.90
60309;DHT22;50313;52.894;6.492;2023-04-07T18:29:01;8.40;99.90
60309;DHT22;50313;52.894;6.492;2023-04-07T18:31:35;8.30;99.90
60309;DHT22;50313;52.894;6.492;2023-04-07T18:34:06;8.20;99.90
60309;DHT22;50313;52.894;6.492;2023-04-07T18:36:32;8.20;99.90
60309;DHT22;50313;52.894;6.492;2023-04-07T18:38:57;8.10;99.90
60309;DHT22;50313;52.894;6.492;2023-04-07T18:41:26;8.00;99.90
60309;DHT22;50313;52.894;6.492;2023-04-07T18:43:54;7.90;99.90
60309;DHT22;50313;52.894;6.492;2023-04-07T18:46:23;7.80;99.90
60309;DHT22;50313;52.894;6.492;2023-04-07T18:48:59;7.70;99.90
60309;DHT22;50313;52.894;6.492;2023-04-07T18:51:28;7.50;99.90
60309;DHT22;50313;52.894;6.492;2023-04-07T18:53:57;7.50;99.90
60309;DHT22;50313;52.894;6.492;2023-04-07T18:56:29;7.50;99.90
60309;DHT22;50313;52.894;6.492;2023-04-07T18:59:00;7.70;99.90
60309;DHT22;50313;52.894;6.492;2023-04-07T19:01:28;7.50;99.90
60309;DHT22;50313;52.894;6.492;2023-04-07T19:03:54;7.40;99.90
60309;DHT22;50313;52.894;6.492;2023-04-07T19:06:24;7.40;99.90
60309;DHT22;50313;52.894;6.492;2023-04-07T19:08:50;7.40;99.90
60309;DHT22;50313;52.894;6.492;2023-04-07T19:11:21;7.30;99.90
60309;DHT22;50313;52.894;6.492;2023-04-07T19:13:52;7.30;99.90
60309;DHT22;50313;52.894;6.492;2023-04-07T19:16:21;7.30;99.90
60309;DHT22;50313;52.894;6.492;2023-04-07T19:19:04;7.30;99.90
60309;DHT22;50313;52.894;6.492;2023-04-07T19:21:33;7.30;99.90
60309;DHT22;50313;52.894;6.492;2023-04-07T19:24:09;7.20;99.90
60309;DHT22;50313;52.894;6.492;2023-04-07T19:26:37;7.20;99.90
60309;DHT22;50313;52.894;6.492;2023-04-07T19:29:08;7.20;99.90
60309;DHT22;50313;52.894;6.492;2023-04-07T19:31:36;7.20;99.90
60309;DHT22;50313;52.894;6.492;2023-04-07T19:34:06;7.10;99.90
60309;DHT22;50313;52.894;6.492;2023-04-07T19:36:54;7.10;99.90
60309;DHT22;50313;52.894;6.492;2023-04-07T19:42:36;7.00;99.90